Time;durP1;ratioP1;P1;durP2;ratioP2;P2;SDS_P1;SDS_P2;PMS_P1;PMS_P2;Temp;Humidity;BMP_temperature;BMP_pressure;BME280_temperature;BME280_humidity;BME280_pressure;Samples;Min_cycle;Max_cycle;Signal;HPM_P1;HPM_P2
2022/05/07 00:01:28;;;;;;;9.82;8.82;;;14.70;99.90;;;;;;4861823;29;20077;-89
2022/05/07 00:03:54;;;;;;;8.90;8.00;;;14.60;99.90;;;;;;4862620;29;20034;-90
2022/05/07 00:06:19;;;;;;;10.15;9.05;;;14.70;99.90;;;;;;4861007;29;20082;-90
2022/05/07 00:08:45;;;;;;;9.65;8.73;;;14.70;99.90;;;;;;4860843;29;20438;-90
2022/05/07 00:11:15;;;;;;;10.27;9.27;;;14.70;99.90;;;;;;4861191;29;20120;-89
2022/05/07 00:13:43;;;;;;;10.98;9.45;;;14.70;99.90;;;;;;4859975;29;20021;-90
2022/05/07 00:18:53;;;;;;;11.13;9.23;;;14.70;99.90;;;;;;4862604;29;20421;-90
2022/05/07 00:21:19;;;;;;;10.27;9.15;;;14.70;99.90;;;;;;4860779;29;20026;-89
2022/05/07 00:23:45;;;;;;;10.70;9.63;;;14.70;99.90;;;;;;4861102;29;20116;-89
2022/05/07 00:26:10;;;;;;;10.68;9.63;;;14.70;99.90;;;;;;4860675;29;20061;-89
2022/05/07 00:28:36;;;;;;;11.25;9.05;;;14.70;99.90;;;;;;4860834;29;20029;-89
2022/05/07 00:31:02;;;;;;;11.18;10.02;;;14.60;99.90;;;;;;4860874;29;20038;-90
2022/05/07 00:33:27;;;;;;;10.93;9.55;;;14.50;99.90;;;;;;4861472;29;20085;-90
2022/05/07 00:35:53;;;;;;;10.70;9.32;;;14.50;99.90;;;;;;4861131;29;20090;-89
2022/05/07 00:38:19;;;;;;;11.18;9.70;;;14.50;99.90;;;;;;4861096;29;20025;-89
2022/05/07 00:40:44;;;;;;;9.82;8.88;;;14.50;99.90;;;;;;4861656;29;20562;-90
2022/05/07 00:43:15;;;;;;;10.35;9.27;;;14.40;99.90;;;;;;4860926;29;20045;-89
2022/05/07 00:46:01;;;;;;;10.80;9.70;;;14.40;99.90;;;;;;4860918;29;20031;-90
2022/05/07 00:48:26;;;;;;;11.82;9.38;;;14.40;99.90;;;;;;4860627;29;20061;-90
2022/05/07 00:53:38;;;;;;;11.30;10.10;;;14.20;99.90;;;;;;4862332;29;20539;-89
2022/05/07 00:56:04;;;;;;;10.77;9.70;;;14.20;99.90;;;;;;4860987;29;20545;-90
2022/05/07 00:58:30;;;;;;;10.18;9.18;;;14.20;99.90;;;;;;4860651;29;20033;-90
2022/05/07 01:00:56;;;;;;;10.75;9.60;;;14.20;99.90;;;;;;4861182;29;20552;-90
2022/05/07 01:03:22;;;;;;;10.90;9.80;;;14.20;99.90;;;;;;4861403;29;20072;-90
2022/05/07 01:05:48;;;;;;;10.13;9.20;;;14.20;99.90;;;;;;4862317;29;20017;-90
2022/05/07 01:08:13;;;;;;;10.70;9.38;;;14.20;99.90;;;;;;4861391;29;20441;-90
2022/05/07 01:10:40;;;;;;;10.75;9.52;;;14.20;99.90;;;;;;4863059;29;20049;-89
2022/05/07 01:13:05;;;;;;;10.23;9.23;;;14.20;99.90;;;;;;4864246;29;20022;-90
2022/05/07 01:15:31;;;;;;;10.95;9.85;;;14.20;99.90;;;;;;4863534;29;20033;-91
2022/05/07 01:17:57;;;;;;;12.45;10.43;;;14.20;99.90;;;;;;4863388;29;20370;-89
2022/05/07 01:20:23;;;;;;;11.02;9.93;;;14.20;99.90;;;;;;4866670;29;20022;-89
2022/05/07 01:22:50;;;;;;;10.95;9.85;;;14.10;99.90;;;;;;4872919;29;20135;-89
2022/05/07 01:25:15;;;;;;;10.80;9.70;;;14.10;99.90;;;;;;4866009;29;20026;-88
2022/05/07 01:27:41;;;;;;;10.77;9.68;;;14.10;99.90;;;;;;4865151;29;20022;-89
2022/05/07 01:30:07;;;;;;;10.10;9.00;;;14.10;99.90;;;;;;4865777;29;20041;-90
2022/05/07 01:32:33;;;;;;;11.35;9.52;;;14.10;99.90;;;;;;4867450;29;20033;-90
2022/05/07 01:34:58;;;;;;;10.43;9.32;;;14.10;99.90;;;;;;4877468;29;20029;-90
2022/05/07 01:37:25;;;;;;;10.13;9.13;;;14.00;99.90;;;;;;4883682;29;20013;-89
2022/05/07 01:39:51;;;;;;;10.77;9.27;;;14.00;99.90;;;;;;4883774;29;20028;-91
2022/05/07 01:42:17;;;;;;;11.07;9.98;;;14.00;99.90;;;;;;4883766;29;20014;-89
2022/05/07 01:44:43;;;;;;;10.63;9.52;;;13.90;99.90;;;;;;4883699;29;20014;-90
2022/05/07 01:49:53;;;;;;;11.05;10.00;;;13.90;99.90;;;;;;4883710;29;20507;-89
2022/05/07 01:52:18;;;;;;;10.48;9.40;;;13.80;99.90;;;;;;4882092;29;20014;-90
2022/05/07 01:54:44;;;;;;;10.82;9.73;;;13.80;99.90;;;;;;4882942;29;20040;-89
2022/05/07 01:57:09;;;;;;;11.25;9.27;;;13.80;99.90;;;;;;4881601;29;20016;-90
2022/05/07 01:59:35;;;;;;;10.52;8.90;;;13.70;99.90;;;;;;4872627;29;20037;-91
2022/05/07 02:02:01;;;;;;;10.32;9.32;;;13.70;99.90;;;;;;4875805;29;20021;-90
2022/05/07 02:04:26;;;;;;;9.23;8.32;;;13.80;99.90;;;;;;4873355;29;20045;-91
2022/05/07 02:06:52;;;;;;;9.65;8.65;;;13.70;99.90;;;;;;4867143;29;20021;-91
2022/05/07 02:09:18;;;;;;;9.65;8.43;;;13.80;99.90;;;;;;4865304;29;20422;-91
2022/05/07 02:11:44;;;;;;;10.95;9.25;;;13.70;99.90;;;;;;4862799;29;20033;-90
2022/05/07 02:14:10;;;;;;;10.35;9.25;;;13.80;99.90;;;;;;4861761;29;20492;-91
2022/05/07 02:16:36;;;;;;;10.73;9.63;;;13.70;99.90;;;;;;4865894;29;20033;-89
2022/05/07 02:19:02;;;;;;;10.63;9.50;;;13.70;99.90;;;;;;4861477;29;20028;-90
2022/05/07 02:21:28;;;;;;;10.52;8.85;;;13.70;99.90;;;;;;4866000;29;20040;-90
2022/05/07 02:23:54;;;;;;;10.75;9.65;;;13.70;99.90;;;;;;4864943;29;20026;-89
2022/05/07 02:26:19;;;;;;;9.82;8.82;;;13.70;99.90;;;;;;4864087;29;20124;-89
2022/05/07 02:28:47;;;;;;;9.95;8.93;;;13.60;99.90;;;;;;4863985;29;20040;-88
2022/05/07 02:31:13;;;;;;;10.82;8.60;;;13.60;99.90;;;;;;4866226;29;20037;-90
2022/05/07 02:33:39;;;;;;;10.55;9.45;;;13.60;99.90;;;;;;4865256;29;20061;-89
2022/05/07 02:36:05;;;;;;;9.95;8.95;;;13.60;99.90;;;;;;4863732;29;20072;-90
2022/05/07 02:38:30;;;;;;;10.32;9.30;;;13.60;99.90;;;;;;4863450;29;20033;-90
2022/05/07 02:43:40;;;;;;;12.27;9.55;;;13.60;99.90;;;;;;4865261;29;20052;-91
2022/05/07 02:46:06;;;;;;;10.40;9.30;;;13.60;99.90;;;;;;4863755;29;20042;-90
2022/05/07 02:48:39;;;;;;;10.73;9.63;;;13.60;99.90;;;;;;4865398;29;20078;-92
2022/05/07 02:51:08;;;;;;;10.77;9.68;;;13.60;99.90;;;;;;4865898;29;20072;-90
2022/05/07 02:53:34;;;;;;;10.95;9.85;;;13.60;99.90;;;;;;4865323;29;20076;-89
2022/05/07 02:56:01;;;;;;;11.77;10.55;;;13.50;99.90;;;;;;4853058;29;20057;-92
2022/05/07 02:58:30;;;;;;;12.23;10.27;;;13.50;99.90;;;;;;4866645;29;20094;-90
2022/05/07 03:00:55;;;;;;;11.00;9.90;;;13.50;99.90;;;;;;4868085;29;20104;-90
2022/05/07 03:03:21;;;;;;;12.05;10.35;;;13.50;99.90;;;;;;4864371;29;20057;-90
2022/05/07 03:05:47;;;;;;;11.40;10.05;;;13.50;99.90;;;;;;4863463;29;20036;-91
2022/05/07 03:08:13;;;;;;;12.13;10.90;;;13.50;99.90;;;;;;4863096;29;20029;-90
2022/05/07 03:10:39;;;;;;;12.65;11.30;;;13.50;99.90;;;;;;4847948;29;20038;-90
2022/05/07 03:13:07;;;;;;;11.73;10.50;;;13.50;99.90;;;;;;4864784;29;20182;-89
2022/05/07 03:15:33;;;;;;;12.63;10.55;;;13.40;99.90;;;;;;4864965;29;20049;-89
2022/05/07 03:17:58;;;;;;;12.35;11.05;;;13.40;99.90;;;;;;4863538;29;20018;-90
2022/05/07 03:20:27;;;;;;;12.50;11.23;;;13.40;99.90;;;;;;4864898;29;20025;-90
2022/05/07 03:22:52;;;;;;;11.98;10.68;;;13.30;99.90;;;;;;4865170;29;20026;-89
2022/05/07 03:25:21;;;;;;;11.30;10.18;;;13.20;99.90;;;;;;4862404;29;20025;-91
2022/05/07 03:27:51;;;;;;;11.20;10.10;;;13.20;99.90;;;;;;4862487;29;20034;-92
2022/05/07 03:30:17;;;;;;;11.73;10.45;;;13.20;99.90;;;;;;4862509;29;20037;-90
2022/05/07 03:32:45;;;;;;;11.57;10.38;;;13.20;99.90;;;;;;4862596;29;20267;-90
2022/05/07 03:35:17;;;;;;;11.73;10.45;;;13.20;99.90;;;;;;4862549;29;20034;-90
2022/05/07 03:37:50;;;;;;;11.57;10.30;;;13.20;99.90;;;;;;4862391;29;20033;-91
2022/05/07 03:40:18;;;;;;;;;;;13.20;99.90;;;;;;4863259;29;20025;-92
2022/05/07 03:42:45;;;;;;;10.45;9.00;;;13.20;99.90;;;;;;4862697;29;19908;-91
2022/05/07 03:45:10;;;;;;;11.93;10.63;;;13.20;99.90;;;;;;4862677;29;20037;-90
2022/05/07 03:47:36;;;;;;;11.57;9.80;;;13.20;99.90;;;;;;4862050;29;20037;-90
2022/05/07 03:50:02;;;;;;;11.90;10.70;;;13.20;99.90;;;;;;4862112;29;20044;-91
2022/05/07 03:55:16;;;;;;;12.13;10.82;;;13.30;99.90;;;;;;4863758;29;20060;-89
2022/05/07 03:57:41;;;;;;;12.55;11.25;;;13.20;99.90;;;;;;4846824;29;20029;-88
2022/05/07 04:00:08;;;;;;;13.75;12.35;;;13.20;99.90;;;;;;4861442;29;20033;-89
2022/05/07 04:02:35;;;;;;;12.35;11.13;;;13.20;99.90;;;;;;4861979;29;20029;-89
2022/05/07 04:05:02;;;;;;;12.25;10.73;;;13.20;99.90;;;;;;4862070;29;20081;-90
2022/05/07 04:07:28;;;;;;;11.52;10.32;;;13.30;99.90;;;;;;4861646;29;20408;-90
2022/05/07 04:09:55;;;;;;;10.95;9.80;;;13.30;99.90;;;;;;4862041;29;20041;-89
2022/05/07 04:12:21;;;;;;;10.82;9.73;;;13.30;99.90;;;;;;4861536;29;20025;-89
2022/05/07 04:14:47;;;;;;;10.68;9.57;;;13.40;99.90;;;;;;4861493;29;20108;-90
2022/05/07 04:17:13;;;;;;;11.00;9.90;;;13.40;99.90;;;;;;4861388;29;20496;-89
2022/05/07 04:19:39;;;;;;;10.90;9.80;;;13.40;99.90;;;;;;4861604;29;20033;-89
2022/05/07 04:22:05;;;;;;;11.10;9.90;;;13.40;99.90;;;;;;4861061;29;20039;-90
2022/05/07 04:24:33;;;;;;;11.70;10.50;;;13.40;99.90;;;;;;4861690;29;20029;-89
2022/05/07 04:26:59;;;;;;;13.27;9.80;;;13.50;99.90;;;;;;4861431;29;20354;-89
2022/05/07 04:29:25;;;;;;;11.13;10.00;;;13.40;99.90;;;;;;4861360;29;20465;-89
2022/05/07 04:31:51;;;;;;;10.93;9.82;;;13.50;99.90;;;;;;4861709;29;20083;-89
2022/05/07 04:34:16;;;;;;;10.93;9.82;;;13.50;99.90;;;;;;4861535;29;20029;-90
2022/05/07 04:36:42;;;;;;;11.68;10.48;;;13.50;99.90;;;;;;4861595;29;20033;-91
2022/05/07 04:39:08;;;;;;;12.00;10.50;;;13.60;99.90;;;;;;4861383;29;20025;-90
2022/05/07 04:41:33;;;;;;;13.77;10.32;;;13.60;99.90;;;;;;4861418;29;20166;-90
2022/05/07 04:44:01;;;;;;;12.32;10.70;;;13.60;99.90;;;;;;4861078;29;20017;-89
2022/05/07 04:46:27;;;;;;;11.40;10.00;;;13.60;99.90;;;;;;4861313;29;20503;-89
2022/05/07 04:48:52;;;;;;;12.25;10.95;;;13.60;99.90;;;;;;4860928;29;20029;-89
2022/05/07 04:51:18;;;;;;;12.27;10.68;;;13.70;99.90;;;;;;4860637;29;20041;-89
2022/05/07 04:53:44;;;;;;;12.20;11.02;;;13.70;99.90;;;;;;4857485;29;20397;-89
2022/05/07 04:56:10;;;;;;;11.95;10.75;;;13.70;99.90;;;;;;4857741;29;20038;-89
2022/05/07 04:58:36;;;;;;;12.25;11.02;;;13.80;99.90;;;;;;4857687;29;20066;-89
2022/05/07 05:01:02;;;;;;;11.88;10.68;;;13.80;99.90;;;;;;4857829;29;20022;-89
2022/05/07 05:03:28;;;;;;;13.20;11.20;;;13.80;99.90;;;;;;4858112;29;20054;-89
2022/05/07 05:05:54;;;;;;;13.43;11.95;;;13.90;99.90;;;;;;4858234;29;20034;-89
2022/05/07 05:08:19;;;;;;;12.35;11.05;;;13.90;99.90;;;;;;4857606;29;20036;-90
2022/05/07 05:10:45;;;;;;;12.13;10.88;;;14.00;99.90;;;;;;4857187;29;20037;-89
2022/05/07 05:13:11;;;;;;;13.32;11.57;;;14.00;99.90;;;;;;4857537;29;20492;-88
2022/05/07 05:15:37;;;;;;;13.80;12.40;;;14.10;99.90;;;;;;4857652;29;20037;-90
2022/05/07 05:18:06;;;;;;;14.73;12.18;;;14.10;99.90;;;;;;4857756;29;20050;-90
2022/05/07 05:20:32;;;;;;;13.63;12.18;;;14.20;99.90;;;;;;4857304;29;20030;-89
2022/05/07 05:22:57;;;;;;;14.50;12.60;;;14.20;99.90;;;;;;4857545;29;20033;-90
2022/05/07 05:25:23;;;;;;;13.88;12.52;;;14.20;99.90;;;;;;4857591;29;20500;-90
2022/05/07 05:27:49;;;;;;;14.15;12.73;;;14.20;99.90;;;;;;4857769;29;20104;-90
2022/05/07 05:30:14;;;;;;;14.80;13.30;;;14.20;99.90;;;;;;4857697;29;20523;-91
2022/05/07 05:32:40;;;;;;;16.13;12.85;;;14.30;99.90;;;;;;4857352;29;20061;-90
2022/05/07 05:35:06;;;;;;;14.02;12.52;;;14.30;99.90;;;;;;4858111;29;20053;-89
2022/05/07 05:37:32;;;;;;;14.57;13.18;;;14.30;99.90;;;;;;4857948;29;20026;-90
2022/05/07 05:39:58;;;;;;;14.68;12.85;;;14.40;99.90;;;;;;4857942;29;20045;-90
2022/05/07 05:42:24;;;;;;;14.65;13.15;;;14.50;99.90;;;;;;4857808;29;20072;-90
2022/05/07 05:44:50;;;;;;;16.48;14.68;;;14.50;99.90;;;;;;4857886;29;20030;-90
2022/05/07 05:47:16;;;;;;;15.82;14.23;;;14.60;99.90;;;;;;4857795;29;20400;-89
2022/05/07 05:49:41;;;;;;;16.85;14.60;;;14.60;99.90;;;;;;4857438;29;20033;-90
2022/05/07 05:52:08;;;;;;;18.70;15.60;;;14.70;99.90;;;;;;4857660;29;20497;-89
2022/05/07 05:54:37;;;;;;;21.98;17.85;;;14.70;99.90;;;;;;4858250;29;20356;-89
2022/05/07 05:57:03;;;;;;;20.83;18.63;;;14.80;99.90;;;;;;4861152;29;20018;-89
2022/05/07 05:59:28;;;;;;;23.92;18.80;;;14.80;99.90;;;;;;4862873;29;20037;-89
2022/05/07 06:01:54;;;;;;;21.42;19.02;;;14.70;99.90;;;;;;4862263;29;20034;-88
2022/05/07 06:04:20;;;;;;;21.30;19.00;;;14.80;99.90;;;;;;4861869;29;20041;-89
2022/05/07 06:06:47;;;;;;;20.20;18.02;;;14.80;99.90;;;;;;4861716;29;20030;-90
2022/05/07 06:09:12;;;;;;;20.75;18.55;;;14.80;99.90;;;;;;4861537;29;20097;-90
2022/05/07 06:11:38;;;;;;;20.65;17.75;;;14.80;99.90;;;;;;4861440;29;20054;-90
2022/05/07 06:14:04;;;;;;;21.52;18.38;;;14.80;99.90;;;;;;4860953;29;20109;-90
2022/05/07 06:16:29;;;;;;;20.70;18.65;;;14.80;99.90;;;;;;4861148;29;20023;-89
2022/05/07 06:18:55;;;;;;;24.02;18.95;;;14.90;99.90;;;;;;4860811;29;20026;-90
2022/05/07 06:21:21;;;;;;;23.27;18.65;;;14.90;99.90;;;;;;4860680;29;20026;-89
2022/05/07 06:23:47;;;;;;;21.30;19.08;;;14.90;99.90;;;;;;4860584;29;20038;-89
2022/05/07 06:28:58;;;;;;;24.90;22.30;;;14.90;99.90;;;;;;4846319;29;20083;-89
2022/05/07 06:31:24;;;;;;;22.73;20.33;;;14.90;99.90;;;;;;4861140;29;20038;-89
2022/05/07 06:33:50;;;;;;;23.67;19.90;;;14.90;99.90;;;;;;4861474;29;20124;-90
2022/05/07 06:36:15;;;;;;;20.45;17.98;;;15.00;99.90;;;;;;4860354;29;20446;-90
2022/05/07 06:38:41;;;;;;;20.15;17.77;;;15.00;99.90;;;;;;4860091;29;20022;-89
2022/05/07 06:41:07;;;;;;;20.27;18.02;;;15.10;99.90;;;;;;4860347;29;20370;-90
2022/05/07 06:43:33;;;;;;;20.70;18.27;;;15.20;99.90;;;;;;4860169;29;20082;-89
2022/05/07 06:46:00;;;;;;;21.05;18.60;;;15.20;99.90;;;;;;4859982;29;20036;-89
2022/05/07 06:48:26;;;;;;;18.45;16.35;;;15.20;99.90;;;;;;4860039;29;20026;-90
2022/05/07 06:50:52;;;;;;;16.85;14.55;;;15.30;99.90;;;;;;4860929;29;20041;-90
2022/05/07 06:53:18;;;;;;;19.13;15.85;;;15.40;99.90;;;;;;4859410;29;20129;-89
2022/05/07 06:55:56;;;;;;;18.10;14.40;;;15.50;99.90;;;;;;4859508;29;20120;-90
2022/05/07 06:58:34;;;;;;;20.58;15.20;;;15.50;99.90;;;;;;4859672;29;20025;-89
2022/05/07 07:01:01;;;;;;;15.60;13.00;;;15.60;99.90;;;;;;4859477;29;20294;-89
2022/05/07 07:03:27;;;;;;;17.50;15.32;;;15.70;99.90;;;;;;4859845;29;20065;-90
2022/05/07 07:05:55;;;;;;;15.90;13.63;;;15.80;99.90;;;;;;4844086;29;20045;-90
2022/05/07 07:08:21;;;;;;;18.35;14.48;;;15.90;99.90;;;;;;4859498;29;20029;-90
2022/05/07 07:10:48;;;;;;;17.55;14.13;;;15.90;99.90;;;;;;4859743;29;20034;-89
2022/05/07 07:13:16;;;;;;;16.80;14.32;;;16.00;99.90;;;;;;4859891;29;20026;-90
2022/05/07 07:15:41;;;;;;;19.15;17.15;;;16.10;99.90;;;;;;4859540;29;20030;-90
2022/05/07 07:18:11;;;;;;;19.08;16.42;;;16.20;99.90;;;;;;4859403;29;20022;-90
2022/05/07 07:20:41;;;;;;;21.27;16.38;;;16.20;99.90;;;;;;4845392;29;20457;-90
2022/05/07 07:23:13;;;;;;;20.40;15.40;;;16.30;99.90;;;;;;4859786;29;20026;-89
2022/05/07 07:25:40;;;;;;;15.73;12.95;;;16.40;99.90;;;;;;4859839;29;20026;-89
2022/05/07 07:28:11;;;;;;;17.25;12.07;;;16.50;99.90;;;;;;4859853;29;20026;-89
2022/05/07 07:30:38;;;;;;;15.93;12.75;;;16.60;99.90;;;;;;4859991;29;20109;-90
2022/05/07 07:33:05;;;;;;;19.55;13.20;;;16.70;99.90;;;;;;4860159;29;20045;-90
2022/05/07 07:35:31;;;;;;;14.98;11.07;;;16.90;99.90;;;;;;4845120;29;20037;-88
2022/05/07 07:37:57;;;;;;;14.38;10.32;;;17.10;99.90;;;;;;4844065;29;20063;-88
2022/05/07 07:40:23;;;;;;;16.13;11.70;;;17.30;99.90;;;;;;4859442;29;20034;-88
2022/05/07 07:42:48;;;;;;;14.40;10.57;;;17.40;99.90;;;;;;4859401;29;20057;-90
2022/05/07 07:48:00;;;;;;;17.85;11.18;;;17.40;99.90;;;;;;4845041;29;20056;-89
2022/05/07 07:50:34;;;;;;;16.70;11.68;;;17.40;99.90;;;;;;4859194;29;20102;-89
2022/05/07 07:53:05;;;;;;;14.85;10.18;;;17.40;99.90;;;;;;4860593;29;20030;-89
2022/05/07 07:55:31;;;;;;;17.40;12.10;;;17.40;99.90;;;;;;4862347;29;20032;-89
2022/05/07 07:57:58;;;;;;;16.85;10.73;;;17.50;99.90;;;;;;4862573;29;20077;-89
2022/05/07 08:00:25;;;;;;;15.70;10.32;;;17.60;99.90;;;;;;4862292;29;20030;-89
2022/05/07 08:02:53;;;;;;;17.75;11.52;;;17.80;99.90;;;;;;4862558;29;20022;-89
2022/05/07 08:05:24;;;;;;;16.48;11.00;;;17.90;99.90;;;;;;4862236;29;20121;-89
2022/05/07 08:13:19;;;;;;;15.30;9.77;;;18.20;99.90;;;;;;4863766;29;20082;-88
2022/05/07 08:15:45;;;;;;;18.52;11.25;;;18.30;99.90;;;;;;4862712;29;20037;-89
2022/05/07 08:18:21;;;;;;;13.20;9.45;;;18.30;99.90;;;;;;4864907;29;20459;-92
2022/05/07 08:20:46;;;;;;;15.20;10.68;;;18.40;99.90;;;;;;4862990;29;20125;-89
2022/05/07 08:23:12;;;;;;;14.63;8.98;;;18.40;99.90;;;;;;4863807;29;20053;-89
2022/05/07 08:25:38;;;;;;;13.90;8.50;;;18.40;99.90;;;;;;4861142;29;20025;-88
2022/05/07 08:28:04;;;;;;;11.60;7.25;;;18.40;99.90;;;;;;4861096;29;20036;-89
2022/05/07 08:30:31;;;;;;;12.50;8.05;;;18.50;99.90;;;;;;4860547;29;20037;-89
2022/05/07 08:32:57;;;;;;;11.07;7.53;;;18.50;99.90;;;;;;4860594;29;20459;-89
2022/05/07 08:35:23;;;;;;;14.40;8.48;;;18.50;99.90;;;;;;4860707;29;20037;-89
2022/05/07 08:37:50;;;;;;;15.27;9.27;;;18.50;99.90;;;;;;4861022;29;20362;-90
2022/05/07 08:40:17;;;;;;;15.18;9.63;;;18.60;99.90;;;;;;4861885;29;20022;-89
2022/05/07 08:42:44;;;;;;;14.00;9.23;;;18.60;99.90;;;;;;4860525;29;20089;-87
2022/05/07 08:45:12;;;;;;;14.60;9.10;;;18.70;99.90;;;;;;4860408;29;20468;-88
2022/05/07 08:47:39;;;;;;;15.82;9.65;;;18.80;99.90;;;;;;4862248;29;20033;-88
2022/05/07 08:50:13;;;;;;;13.70;10.02;;;18.80;99.90;;;;;;4863293;29;20041;-88
2022/05/07 08:52:43;;;;;;;13.63;8.90;;;19.00;99.90;;;;;;4863162;29;20036;-88
2022/05/07 08:55:19;;;;;;;13.38;8.30;;;19.10;99.90;;;;;;4860468;29;20505;-89
2022/05/07 08:57:48;;;;;;;13.93;9.27;;;19.20;99.90;;;;;;4860596;29;20060;-88
2022/05/07 09:00:17;;;;;;;13.38;8.57;;;19.30;99.90;;;;;;4860654;29;20025;-89
2022/05/07 09:02:51;;;;;;;11.55;7.95;;;19.40;99.90;;;;;;4860743;29;20060;-89
2022/05/07 09:05:19;;;;;;;15.57;10.07;;;19.60;99.90;;;;;;4860016;29;20318;-88
2022/05/07 09:07:58;;;;;;;14.48;9.38;;;19.80;99.90;;;;;;4860024;29;20405;-88
2022/05/07 09:10:29;;;;;;;14.63;10.27;;;19.80;99.90;;;;;;4860155;29;20048;-88
2022/05/07 09:13:00;;;;;;;15.15;9.93;;;19.90;99.90;;;;;;4859998;29;20094;-88
2022/05/07 09:15:26;;;;;;;13.73;9.60;;;20.00;99.90;;;;;;4860457;29;20029;-88
2022/05/07 09:17:51;;;;;;;12.13;8.18;;;20.20;99.90;;;;;;4860931;29;20090;-88
2022/05/07 09:20:21;;;;;;;11.15;7.25;;;20.30;99.90;;;;;;4859757;29;20113;-88
2022/05/07 09:22:56;;;;;;;10.73;6.90;;;20.40;99.90;;;;;;4859837;29;20030;-87
2022/05/07 09:25:24;;;;;;;11.45;7.38;;;20.50;99.90;;;;;;4860015;29;20022;-89
2022/05/07 09:27:51;;;;;;;11.43;6.68;;;20.60;99.90;;;;;;4859900;29;20481;-88
2022/05/07 09:30:23;;;;;;;12.40;6.88;;;20.80;99.90;;;;;;4864064;29;20041;-88
2022/05/07 09:32:51;;;;;;;12.68;7.65;;;21.00;99.90;;;;;;4865100;29;20021;-88
2022/05/07 09:38:03;;;;;;;9.43;6.03;;;22.80;99.90;;;;;;4865101;29;20044;-89
2022/05/07 09:40:29;;;;;;;9.82;5.50;;;23.80;99.90;;;;;;4864961;29;20061;-89
2022/05/07 09:43:01;;;;;;;10.00;6.50;;;24.60;99.90;;;;;;4864111;29;20461;-89
2022/05/07 09:45:28;;;;;;;9.63;5.47;;;25.30;99.90;;;;;;4864729;29;20034;-89
2022/05/07 09:48:00;;;;;;;7.38;4.85;;;25.80;99.40;;;;;;4863589;29;20477;-89
2022/05/07 09:58:40;;;;;;;8.10;5.03;;;27.00;96.00;;;;;;4864965;29;20144;-89
2022/05/07 10:01:20;;;;;;;8.43;4.78;;;27.30;95.50;;;;;;4863818;29;20117;-89
2022/05/07 10:04:26;;;;;;;9.38;5.13;;;27.60;95.10;;;;;;4864599;29;20037;-89
2022/05/07 10:06:57;;;;;;;14.02;6.53;;;28.20;94.30;;;;;;4863475;29;20120;-90
2022/05/07 10:09:52;;;;;;;9.48;5.85;;;27.90;92.90;;;;;;4864567;29;20022;-89
2022/05/07 10:12:20;;;;;;;8.00;5.22;;;27.20;92.90;;;;;;4847117;29;20042;-89
2022/05/07 10:14:47;;;;;;;7.63;4.35;;;27.00;92.80;;;;;;4866469;29;20041;-90
2022/05/07 10:17:15;;;;;;;7.95;4.82;;;27.60;92.80;;;;;;4864432;29;20033;-90
2022/05/07 10:19:42;;;;;;;9.00;5.05;;;28.30;92.10;;;;;;4863781;29;20033;-90
2022/05/07 10:22:23;;;;;;;8.43;5.07;;;28.70;91.70;;;;;;4863292;29;20116;-89
2022/05/07 10:25:05;;;;;;;6.60;4.68;;;29.10;90.80;;;;;;4863676;29;20026;-91
2022/05/07 10:27:44;;;;;;;9.65;5.25;;;29.00;90.50;;;;;;4863183;29;20028;-90
2022/05/07 10:30:13;;;;;;;8.50;5.70;;;28.20;90.00;;;;;;4863188;29;20124;-90
2022/05/07 10:32:46;;;;;;;7.25;5.05;;;27.40;90.00;;;;;;4847690;29;20122;-91
2022/05/07 10:35:14;;;;;;;8.27;5.63;;;26.70;90.60;;;;;;4847977;29;20045;-90
2022/05/07 10:37:41;;;;;;;7.63;4.90;;;26.70;90.80;;;;;;4863220;29;20484;-89
2022/05/07 10:40:11;;;;;;;8.52;5.50;;;26.80;90.70;;;;;;4862316;29;20033;-89
2022/05/07 10:42:40;;;;;;;8.85;5.95;;;26.50;90.30;;;;;;4863481;29;20056;-89
2022/05/07 10:45:22;;;;;;;7.05;4.68;;;25.90;90.60;;;;;;4863269;29;20122;-87
2022/05/07 10:47:54;;;;;;;5.90;4.15;;;26.00;91.00;;;;;;4863359;29;20514;-86
2022/05/07 10:50:23;;;;;;;7.20;5.00;;;27.00;90.70;;;;;;4862964;29;20064;-86
2022/05/07 10:52:56;;;;;;;6.30;4.13;;;28.10;90.10;;;;;;4861984;29;20017;-86
2022/05/07 10:55:29;;;;;;;5.65;4.07;;;28.60;89.60;;;;;;4861794;29;20093;-87
2022/05/07 10:58:00;;;;;;;6.75;3.92;;;29.00;88.20;;;;;;4861856;29;20026;-87
2022/05/07 11:00:26;;;;;;;6.82;4.70;;;28.80;87.90;;;;;;4863206;29;20083;-87
2022/05/07 11:02:58;;;;;;;5.43;3.78;;;28.00;88.20;;;;;;4861729;29;20030;-86
2022/05/07 11:05:31;;;;;;;8.55;5.50;;;27.20;89.10;;;;;;4861776;29;20462;-86
2022/05/07 11:07:59;;;;;;;7.68;4.47;;;26.70;89.00;;;;;;4861495;29;20041;-86
2022/05/07 11:10:25;;;;;;;7.75;4.22;;;27.00;89.80;;;;;;4861416;29;20069;-86
2022/05/07 11:12:51;;;;;;;7.18;4.43;;;28.00;88.40;;;;;;4862912;29;20029;-86
2022/05/07 11:15:24;;;;;;;6.65;4.47;;;28.90;86.90;;;;;;4863052;29;20037;-86
2022/05/07 11:17:50;;;;;;;7.68;5.45;;;29.90;86.00;;;;;;4861508;29;20048;-87
2022/05/07 11:20:26;;;;;;;8.95;5.45;;;29.90;84.60;;;;;;4862777;29;20485;-87
2022/05/07 11:23:02;;;;;;;7.72;5.18;;;29.00;84.30;;;;;;4861948;29;20029;-86
2022/05/07 11:25:28;;;;;;;6.35;4.40;;;27.80;85.00;;;;;;4861558;29;20393;-86
2022/05/07 11:27:56;;;;;;;8.07;4.10;;;26.90;86.20;;;;;;4861064;29;20442;-86
2022/05/07 11:30:22;;;;;;;6.10;4.05;;;26.30;87.20;;;;;;4861774;29;20060;-86
2022/05/07 11:32:47;;;;;;;8.48;5.20;;;26.10;87.60;;;;;;4861475;29;20030;-86
2022/05/07 11:35:13;;;;;;;6.82;4.40;;;25.90;88.00;;;;;;4861111;29;20041;-86
2022/05/07 11:37:46;;;;;;;7.90;4.13;;;25.80;87.90;;;;;;4861023;29;20116;-87
2022/05/07 11:40:13;;;;;;;8.48;5.40;;;25.60;87.90;;;;;;4861062;29;20033;-85
2022/05/07 11:42:44;;;;;;;10.10;7.22;;;25.20;87.90;;;;;;4861126;29;20085;-86
2022/05/07 11:45:29;;;;;;;10.23;5.45;;;24.60;87.90;;;;;;4862181;29;20026;-86
2022/05/07 11:48:05;;;;;;;8.73;5.70;;;24.00;89.70;;;;;;4861084;29;20396;-86
2022/05/07 11:50:32;;;;;;;11.20;5.80;;;23.50;90.50;;;;;;4860827;29;20037;-86
2022/05/07 11:53:19;;;;;;;9.48;5.03;;;23.00;90.90;;;;;;4860301;29;20056;-85
2022/05/07 11:55:45;;;;;;;8.13;5.30;;;22.60;91.40;;;;;;4867707;29;20034;-89
2022/05/07 11:58:23;;;;;;;7.97;4.68;;;22.20;92.30;;;;;;4861592;29;20084;-89
2022/05/07 12:00:50;;;;;;;8.88;5.15;;;22.00;92.90;;;;;;4861888;29;20093;-90
2022/05/07 12:03:27;;;;;;;8.88;5.65;;;21.80;94.20;;;;;;4846888;29;20060;-91
2022/05/07 12:05:57;;;;;;;9.48;6.30;;;21.50;95.20;;;;;;4861114;29;20042;-90
2022/05/07 12:08:30;;;;;;;9.60;5.43;;;21.10;96.30;;;;;;4862186;29;20058;-90
2022/05/07 12:10:56;;;;;;;7.45;4.03;;;20.70;97.10;;;;;;4861714;29;20044;-90
2022/05/07 12:13:24;;;;;;;6.78;4.45;;;20.40;97.80;;;;;;4860507;29;20026;-89
2022/05/07 12:18:35;;;;;;;6.45;4.53;;;20.40;98.70;;;;;;4863320;29;20045;-89
2022/05/07 12:21:01;;;;;;;7.63;4.30;;;20.50;99.10;;;;;;4861845;29;20026;-90
2022/05/07 12:31:40;;;;;;;6.40;3.42;;;20.40;99.90;;;;;;4862600;29;20055;-90
2022/05/07 12:34:06;;;;;;;6.40;4.03;;;20.60;99.90;;;;;;4861517;29;20029;-89
2022/05/07 12:36:32;;;;;;;7.47;4.03;;;20.80;99.90;;;;;;4861212;29;20450;-90
2022/05/07 12:38:59;;;;;;;5.45;3.60;;;21.10;99.90;;;;;;4860946;29;20086;-89
2022/05/07 12:41:31;;;;;;;7.97;4.03;;;21.60;99.90;;;;;;4861552;29;20040;-90
2022/05/07 12:44:00;;;;;;;6.63;4.10;;;22.10;99.90;;;;;;4861538;29;20096;-89
2022/05/07 12:46:27;;;;;;;5.68;3.75;;;22.70;99.90;;;;;;4860782;29;20036;-89
2022/05/07 12:48:55;;;;;;;7.65;3.53;;;23.30;99.90;;;;;;4860666;29;20057;-90
2022/05/07 12:51:21;;;;;;;5.45;3.08;;;24.40;99.90;;;;;;4861750;29;20480;-91
2022/05/07 12:53:51;;;;;;;5.55;3.38;;;25.40;99.00;;;;;;4862293;29;20153;-89
2022/05/07 12:56:16;;;;;;;5.63;3.03;;;25.80;97.70;;;;;;4862004;29;20051;-90
2022/05/07 12:58:42;;;;;;;4.95;3.20;;;26.20;97.50;;;;;;4863234;29;20472;-89
2022/05/07 13:01:09;;;;;;;6.45;3.83;;;26.30;97.20;;;;;;4861926;29;20030;-88
2022/05/07 13:03:35;;;;;;;6.30;4.50;;;26.30;96.50;;;;;;4860245;29;20507;-88
2022/05/07 13:06:00;;;;;;;6.60;4.00;;;26.90;96.20;;;;;;4862060;29;20037;-89
2022/05/07 13:08:27;;;;;;;7.10;4.25;;;27.70;95.90;;;;;;4861560;29;20029;-91
2022/05/07 13:10:55;;;;;;;6.50;4.90;;;28.30;95.40;;;;;;4860996;29;20041;-89
2022/05/07 13:13:24;;;;;;;10.38;5.32;;;28.80;94.80;;;;;;4859727;29;20034;-88
2022/05/07 13:15:51;;;;;;;5.72;4.35;;;29.40;94.20;;;;;;4860553;29;20058;-89
2022/05/07 13:18:17;;;;;;;6.97;4.28;;;29.40;93.90;;;;;;4860369;29;20122;-89
2022/05/07 13:20:49;;;;;;;9.07;5.60;;;28.80;93.60;;;;;;4862490;29;20073;-89
2022/05/07 13:23:15;;;;;;;6.40;4.80;;;27.90;93.40;;;;;;4860279;29;20192;-89
2022/05/07 13:25:41;;;;;;;7.30;4.72;;;26.90;93.80;;;;;;4860247;29;20069;-89